Etusivu
METAR-TAF:

METAR-TAF

Lentoasemat :

Aberdeen, Etelä-Dakota, Yhdysvallat

Leveyspiiri: 45-26-36N, Pituuspiiri: 098-24-47W, korkeus merenpinnasta: 396 m

Tämänhetkinen sää

Tämä raportti tehtiin 22 minuuttia sitten, kello 12.19 UTC
Tuuli 9 kn pohjoisesta
Lämpötila -5°C
Kosteus 93%
Ilmanpaine 1012 hPa
Näkyvyys: 2.0 km
Pilvistä 300 ft:n korkeudessa
utua

METAR: KABR 171219Z AUTO 36009KT 1 1/4SM BR OVC003 M05/M06 A2987 RMK AO2 I1000 T10501061

Aika: 06:41 (12:41 UTC)

Sääennuste

Tämä raportti tehtiin 1 tunti ja 9 minuuttia sitten, kello 11.32 UTC
Ennuste voimassa 17. päivästä klo 12 UTC - 18. päivään klo 12 UTC
Tuuli 7 kn pohjoisesta
Näkyvyys: 4.8 km
Pilvistä 400 ft:n korkeudessa
utua
From 17. päivästä klo 1600 UTC
Tuuli 9 kn pohjoisesta
Näkyvyys: 10 km
Pilvistä 1000 ft:n korkeudessa

TAF: KABR 171132Z 1712/1812 36007KT 3SM BR OVC004 FM171600 35009KT P6SM OVC010

Säähavainnot ja -ennusteet yli 4000 lentoasemalta (METAR- ja TAF-raportit).

Käytössä olevat sääasemat on merkitty karttaan keltaisilla ja punaisilla pisteillä.

Aseta hiiri pisteen päälle nähdäksesi sääaseman nimen.

Klikkaa sitten nähdäksesi säähavainnot ja -ennusteet.

Kartan vaihtaminen: klikkaa mustalla rastilla varustettuja vihreitä pisteitä, niin voit zoomata sisään; viivalla varustettua vihreää pistettä, niin voit zoomata ulos tai vihreitä nuolia, niin pääset viereisille kartoille.


METAR-TAF: